Time;durP1;ratioP1;P1;durP2;ratioP2;P2;SDS_P1;SDS_P2;PMS_P1;PMS_P2;Temp;Humidity;BMP_temperature;BMP_pressure;BME280_temperature;BME280_humidity;BME280_pressure;Samples;Min_cycle;Max_cycle;Signal;HPM_P1;HPM_P2
2023/11/08 00:01:52;;;;;;;9.60;4.78;;;7.20;99.90;;;;;;5052889;28;20624;-76
2023/11/08 00:04:19;;;;;;;8.50;5.97;;;7.20;99.90;;;;;;5054566;28;20078;-76
2023/11/08 00:06:45;;;;;;;6.53;5.20;;;7.20;99.90;;;;;;5055590;28;20666;-76
2023/11/08 00:09:10;;;;;;;6.60;4.82;;;7.20;99.90;;;;;;5054051;28;20697;-76
2023/11/08 00:11:38;;;;;;;7.65;5.38;;;7.30;99.90;;;;;;5054337;28;20413;-77
2023/11/08 00:14:05;;;;;;;7.50;4.88;;;7.30;99.90;;;;;;5054698;28;20082;-76
2023/11/08 00:16:31;;;;;;;7.35;5.20;;;7.30;99.90;;;;;;5054712;28;20040;-76
2023/11/08 00:18:57;;;;;;;6.88;5.25;;;7.20;99.90;;;;;;5055524;28;20036;-76
2023/11/08 00:21:29;;;;;;;7.90;4.78;;;7.30;99.90;;;;;;5056511;28;20037;-76
2023/11/08 00:23:54;;;;;;;8.20;5.45;;;7.30;99.90;;;;;;5054530;28;20654;-76
2023/11/08 00:26:20;;;;;;;7.63;5.45;;;7.40;99.90;;;;;;5054556;28;20384;-76
2023/11/08 00:28:47;;;;;;;8.88;5.05;;;7.30;99.90;;;;;;5056257;28;20444;-76
2023/11/08 00:31:12;;;;;;;6.85;4.97;;;7.30;99.90;;;;;;5055964;28;20802;-76
2023/11/08 00:33:38;;;;;;;9.50;4.95;;;7.20;99.90;;;;;;5054320;28;20048;-76
2023/11/08 00:36:04;;;;;;;8.45;5.63;;;7.10;99.90;;;;;;5056324;28;20062;-76
2023/11/08 00:38:29;;;;;;;7.72;5.93;;;7.20;99.90;;;;;;5055848;28;20040;-76
2023/11/08 00:40:55;;;;;;;7.53;5.40;;;7.20;99.90;;;;;;5055441;28;20520;-76
2023/11/08 00:43:21;;;;;;;8.82;5.60;;;7.20;99.90;;;;;;5056159;28;20694;-76
2023/11/08 00:45:46;;;;;;;7.90;5.88;;;7.10;99.90;;;;;;5056059;28;20485;-76
2023/11/08 00:48:12;;;;;;;7.75;5.68;;;7.10;99.90;;;;;;5054195;28;20040;-76
2023/11/08 00:50:38;;;;;;;9.07;5.82;;;7.10;99.90;;;;;;5054743;28;20036;-78
2023/11/08 00:53:06;;;;;;;8.75;6.45;;;7.10;99.90;;;;;;5055622;28;20029;-78
2023/11/08 00:55:32;;;;;;;10.13;7.30;;;7.10;99.90;;;;;;5054727;28;20048;-78
2023/11/08 00:57:58;;;;;;;8.80;6.80;;;7.10;99.90;;;;;;5055461;28;20036;-78
2023/11/08 01:00:24;;;;;;;8.73;5.93;;;7.10;99.90;;;;;;5055653;28;20509;-78
2023/11/08 01:02:51;;;;;;;8.18;5.43;;;7.00;99.90;;;;;;5054944;28;20040;-78
2023/11/08 01:05:17;;;;;;;7.82;6.30;;;7.00;99.90;;;;;;5054180;28;20064;-78
2023/11/08 01:07:43;;;;;;;8.13;6.25;;;7.20;99.90;;;;;;5037955;28;20594;-78
2023/11/08 01:10:08;;;;;;;8.52;5.95;;;7.20;99.90;;;;;;5054208;28;20020;-78
2023/11/08 01:12:34;;;;;;;7.70;6.00;;;7.30;99.90;;;;;;5054577;28;20040;-78
2023/11/08 01:15:01;;;;;;;8.85;5.70;;;7.20;99.90;;;;;;5054677;28;20043;-78
2023/11/08 01:17:27;;;;;;;8.05;6.05;;;7.20;99.90;;;;;;5054505;28;20471;-78
2023/11/08 01:19:53;;;;;;;7.35;5.72;;;7.20;99.90;;;;;;5055745;28;20039;-78
2023/11/08 01:22:19;;;;;;;8.73;5.57;;;7.20;99.90;;;;;;5054952;28;20025;-78
2023/11/08 01:24:47;;;;;;;8.15;5.60;;;7.10;99.90;;;;;;5054277;28;20036;-78
2023/11/08 01:27:14;;;;;;;7.32;5.63;;;7.10;99.90;;;;;;5054605;28;20025;-78
2023/11/08 01:29:40;;;;;;;7.85;5.65;;;7.10;99.90;;;;;;5054155;28;20119;-77
2023/11/08 01:32:06;;;;;;;8.40;5.90;;;7.00;99.90;;;;;;5054369;28;20034;-78
2023/11/08 01:34:32;;;;;;;7.95;5.65;;;7.20;99.90;;;;;;5054404;28;20036;-78
2023/11/08 01:36:58;;;;;;;9.88;6.75;;;7.30;99.90;;;;;;5055996;28;20043;-78
2023/11/08 01:39:24;;;;;;;8.52;5.53;;;7.30;99.90;;;;;;5054965;28;20415;-78
2023/11/08 01:41:50;;;;;;;8.93;6.55;;;7.30;99.90;;;;;;5055003;28;20098;-78
2023/11/08 01:44:18;;;;;;;10.80;6.05;;;7.30;99.90;;;;;;5055508;28;20029;-78
2023/11/08 01:46:48;;;;;;;9.68;6.05;;;7.30;99.90;;;;;;5054706;28;20086;-78
2023/11/08 01:49:13;;;;;;;9.45;6.55;;;7.20;99.90;;;;;;5054136;28;20312;-78
2023/11/08 01:51:41;;;;;;;8.57;6.25;;;7.30;99.90;;;;;;5055238;28;20050;-78
2023/11/08 01:54:07;;;;;;;12.52;6.88;;;7.20;99.90;;;;;;5054264;28;20071;-77
2023/11/08 01:56:34;;;;;;;10.23;6.90;;;7.30;99.90;;;;;;5053830;28;20072;-78
2023/11/08 01:59:00;;;;;;;6.97;5.32;;;7.20;99.90;;;;;;5055613;28;20024;-78
2023/11/08 02:01:26;;;;;;;9.57;6.20;;;7.20;99.90;;;;;;5055580;28;20376;-78
2023/11/08 02:03:53;;;;;;;9.50;6.03;;;7.10;99.90;;;;;;5057962;28;20039;-78
2023/11/08 02:06:19;;;;;;;11.23;6.63;;;7.10;99.90;;;;;;5059532;28;20036;-78
2023/11/08 02:08:45;;;;;;;8.38;6.50;;;7.10;99.90;;;;;;5059501;28;20043;-78
2023/11/08 02:11:12;;;;;;;8.63;6.70;;;7.10;99.90;;;;;;5057288;28;20039;-78
2023/11/08 02:13:39;;;;;;;9.23;6.68;;;7.10;99.90;;;;;;5057842;28;20028;-78
2023/11/08 02:16:05;;;;;;;9.60;7.18;;;7.10;99.90;;;;;;5059100;28;20074;-78
2023/11/08 02:18:31;;;;;;;11.25;6.00;;;7.00;99.90;;;;;;5058261;28;20040;-78
2023/11/08 02:21:00;;;;;;;9.25;7.13;;;6.80;99.90;;;;;;5058228;28;20466;-78
2023/11/08 02:23:27;;;;;;;8.23;5.40;;;6.80;99.90;;;;;;5058796;28;20126;-78
2023/11/08 02:25:53;;;;;;;7.60;6.18;;;6.90;99.90;;;;;;5057855;28;20052;-77
2023/11/08 02:28:20;;;;;;;8.70;6.07;;;6.90;99.90;;;;;;5058047;28;20036;-78
2023/11/08 02:30:54;;;;;;;7.45;5.60;;;6.80;99.90;;;;;;5058184;28;20024;-77
2023/11/08 02:33:20;;;;;;;7.78;5.03;;;6.90;99.90;;;;;;5057537;28;20029;-78
2023/11/08 02:35:47;;;;;;;7.70;5.40;;;6.90;99.90;;;;;;5057756;28;20035;-78
2023/11/08 02:38:14;;;;;;;8.52;6.38;;;6.90;99.90;;;;;;5058925;28;20032;-78
2023/11/08 02:40:40;;;;;;;9.70;6.00;;;6.80;99.90;;;;;;5058271;28;20036;-78
2023/11/08 02:43:06;;;;;;;8.38;5.40;;;6.80;99.90;;;;;;5057311;28;20051;-76
2023/11/08 02:45:33;;;;;;;7.68;5.30;;;6.90;99.90;;;;;;5058271;28;20037;-76
2023/11/08 02:48:02;;;;;;;9.38;5.60;;;6.80;99.90;;;;;;5058395;28;20470;-75
2023/11/08 02:50:28;;;;;;;8.25;6.38;;;6.80;99.90;;;;;;5055855;28;20389;-76
2023/11/08 02:52:54;;;;;;;7.18;5.13;;;6.80;99.90;;;;;;5057485;28;20067;-75
2023/11/08 02:55:20;;;;;;;8.43;5.18;;;6.80;99.90;;;;;;5058282;28;20071;-74
2023/11/08 02:57:46;;;;;;;6.53;5.07;;;6.60;99.90;;;;;;5057110;28;20505;-75
2023/11/08 03:00:13;;;;;;;7.22;4.63;;;6.80;99.90;;;;;;5056029;28;20032;-74
2023/11/08 03:02:39;;;;;;;8.27;5.35;;;6.90;99.90;;;;;;5057305;28;20033;-75
2023/11/08 03:05:06;;;;;;;8.45;4.53;;;7.00;99.90;;;;;;5055115;28;20094;-75
2023/11/08 03:07:32;;;;;;;6.50;5.25;;;7.00;99.90;;;;;;5057678;28;20032;-75
2023/11/08 03:09:59;;;;;;;9.25;4.90;;;7.00;99.90;;;;;;5056468;28;20037;-74
2023/11/08 03:12:25;;;;;;;7.03;4.97;;;6.90;99.90;;;;;;5056538;28;20068;-75
2023/11/08 03:14:51;;;;;;;6.45;4.82;;;6.90;99.90;;;;;;5057430;28;20039;-75
2023/11/08 03:17:20;;;;;;;7.07;4.38;;;6.70;99.90;;;;;;5056557;28;20048;-75
2023/11/08 03:19:46;;;;;;;7.35;4.50;;;6.80;99.90;;;;;;5057111;28;20526;-75
2023/11/08 03:22:16;;;;;;;6.90;4.72;;;6.90;99.90;;;;;;5055659;28;20037;-75
2023/11/08 03:24:43;;;;;;;6.68;4.57;;;6.90;99.90;;;;;;5056603;28;20509;-74
2023/11/08 03:27:09;;;;;;;6.85;4.60;;;7.00;99.90;;;;;;5056477;28;20067;-75
2023/11/08 03:29:36;;;;;;;5.78;4.10;;;7.10;99.90;;;;;;5056623;28;21415;-75
2023/11/08 03:32:02;;;;;;;8.02;4.45;;;7.00;99.90;;;;;;5058134;28;20032;-74
2023/11/08 03:34:28;;;;;;;6.85;3.78;;;7.00;99.90;;;;;;5056902;28;20043;-74
2023/11/08 03:36:54;;;;;;;6.38;4.63;;;7.00;99.90;;;;;;5056165;28;20120;-75
2023/11/08 03:39:20;;;;;;;7.90;4.15;;;7.00;99.90;;;;;;5057649;28;20033;-74
2023/11/08 03:41:46;;;;;;;5.63;3.83;;;6.90;99.90;;;;;;5057254;28;20068;-75
2023/11/08 03:44:12;;;;;;;6.90;4.20;;;6.90;99.90;;;;;;5056421;28;20133;-75
2023/11/08 03:46:38;;;;;;;6.40;4.22;;;6.90;99.90;;;;;;5056792;28;20043;-74
2023/11/08 03:49:05;;;;;;;5.45;4.22;;;6.80;99.90;;;;;;5056191;28;20040;-75
2023/11/08 03:51:30;;;;;;;6.32;3.88;;;6.90;99.90;;;;;;5055461;28;20036;-74
2023/11/08 03:53:56;;;;;;;7.45;5.00;;;6.80;99.90;;;;;;5056063;28;20385;-74
2023/11/08 03:56:22;;;;;;;7.47;4.10;;;6.80;99.90;;;;;;5056733;28;20452;-74
2023/11/08 03:58:48;;;;;;;6.47;4.07;;;6.90;99.90;;;;;;5055735;28;21101;-74
2023/11/08 04:01:14;;;;;;;6.75;3.80;;;6.80;99.90;;;;;;5055763;28;20116;-76
2023/11/08 04:03:39;;;;;;;5.88;3.45;;;6.80;99.90;;;;;;5051813;28;20044;-75
2023/11/08 04:06:05;;;;;;;6.22;3.67;;;6.80;99.90;;;;;;5050044;28;20123;-75
2023/11/08 04:08:32;;;;;;;5.38;3.85;;;6.80;99.90;;;;;;5052020;28;20047;-74
2023/11/08 04:10:58;;;;;;;5.82;3.35;;;6.80;99.90;;;;;;5051234;28;20062;-75
2023/11/08 04:13:24;;;;;;;7.88;4.18;;;6.80;99.90;;;;;;5050604;28;20120;-75
2023/11/08 04:15:50;;;;;;;4.97;3.00;;;6.80;99.90;;;;;;5051746;28;20060;-75
2023/11/08 04:18:15;;;;;;;6.10;3.90;;;6.70;99.90;;;;;;5047874;28;20081;-75
2023/11/08 04:20:42;;;;;;;7.03;4.15;;;6.70;99.90;;;;;;5048800;28;20040;-75
2023/11/08 04:23:08;;;;;;;6.53;4.50;;;6.70;99.90;;;;;;5049506;28;20040;-75
2023/11/08 04:25:34;;;;;;;5.75;4.45;;;6.60;99.90;;;;;;5049720;28;20039;-75
2023/11/08 04:28:00;;;;;;;5.55;3.45;;;6.60;99.90;;;;;;5050750;28;20159;-74
2023/11/08 04:30:25;;;;;;;6.80;3.80;;;6.50;99.90;;;;;;5052508;28;20028;-75
2023/11/08 04:32:51;;;;;;;7.35;4.50;;;6.50;99.90;;;;;;5051973;28;20036;-75
2023/11/08 04:35:17;;;;;;;6.95;4.45;;;6.50;99.90;;;;;;5050291;28;20040;-74
2023/11/08 04:37:46;;;;;;;7.82;4.32;;;6.50;99.90;;;;;;5052901;28;20041;-76
2023/11/08 04:40:12;;;;;;;7.95;5.65;;;6.50;99.90;;;;;;5052211;28;20044;-75
2023/11/08 04:42:37;;;;;;;6.22;4.55;;;6.50;99.90;;;;;;5051187;28;20032;-75
2023/11/08 04:45:03;;;;;;;6.90;4.60;;;6.50;99.90;;;;;;5051106;28;20029;-75
2023/11/08 04:47:29;;;;;;;6.57;4.78;;;6.40;99.90;;;;;;5052554;28;20028;-75
2023/11/08 04:49:55;;;;;;;7.85;4.80;;;6.40;99.90;;;;;;5050640;28;20591;-75
2023/11/08 04:52:21;;;;;;;6.45;3.88;;;6.30;99.90;;;;;;5050098;28;20029;-74
2023/11/08 04:54:49;;;;;;;5.47;3.88;;;6.40;99.90;;;;;;5052148;28;20041;-75
2023/11/08 04:57:18;;;;;;;6.50;4.57;;;6.30;99.90;;;;;;5050761;28;20143;-75
2023/11/08 04:59:47;;;;;;;6.32;4.03;;;6.30;99.90;;;;;;5048376;28;20024;-75
2023/11/08 05:02:17;;;;;;;5.82;3.97;;;6.40;99.90;;;;;;5049398;28;20033;-75
2023/11/08 05:04:46;;;;;;;7.43;4.40;;;6.20;99.90;;;;;;5049235;28;20036;-75
2023/11/08 05:07:12;;;;;;;6.50;4.00;;;6.20;99.90;;;;;;5046140;28;20711;-75
2023/11/08 05:09:38;;;;;;;5.65;4.00;;;6.20;99.90;;;;;;5045676;28;20045;-75
2023/11/08 05:12:09;;;;;;;5.68;3.75;;;6.20;99.90;;;;;;5048702;28;20113;-75
2023/11/08 05:14:35;;;;;;;7.95;3.95;;;6.20;99.90;;;;;;5048709;28;20064;-75
2023/11/08 05:17:01;;;;;;;6.07;3.90;;;6.20;99.90;;;;;;5047694;28;20052;-75
2023/11/08 05:19:27;;;;;;;6.00;3.20;;;6.20;99.90;;;;;;5047707;28;20033;-74
2023/11/08 05:21:53;;;;;;;5.70;3.63;;;6.30;99.90;;;;;;5047962;28;20136;-75
2023/11/08 05:24:21;;;;;;;5.63;3.17;;;6.30;99.90;;;;;;5047982;28;20032;-76
2023/11/08 05:26:47;;;;;;;5.47;3.03;;;6.30;99.90;;;;;;5047793;28;20025;-75
2023/11/08 05:29:13;;;;;;;6.18;3.10;;;6.10;99.90;;;;;;5047189;28;20040;-74
2023/11/08 05:31:39;;;;;;;5.22;3.15;;;6.10;99.90;;;;;;5046452;28;20059;-75
2023/11/08 05:34:04;;;;;;;6.82;2.83;;;6.00;99.90;;;;;;5046969;28;20028;-75
2023/11/08 05:36:30;;;;;;;6.40;3.80;;;6.10;99.90;;;;;;5048125;28;20048;-75
2023/11/08 05:38:57;;;;;;;6.38;3.13;;;6.20;99.90;;;;;;5047456;28;20394;-75
2023/11/08 05:41:23;;;;;;;5.55;2.75;;;6.10;99.90;;;;;;5047705;28;20035;-75
2023/11/08 05:43:53;;;;;;;6.55;2.92;;;6.20;99.90;;;;;;5049043;28;20490;-75
2023/11/08 05:46:19;;;;;;;5.55;3.45;;;6.20;99.90;;;;;;5044710;28;20037;-75
2023/11/08 05:48:45;;;;;;;8.18;3.00;;;6.20;99.90;;;;;;5046473;28;20090;-75
2023/11/08 05:51:11;;;;;;;6.00;3.28;;;6.20;99.90;;;;;;5048791;28;20367;-74
2023/11/08 05:53:39;;;;;;;4.47;2.63;;;6.20;99.90;;;;;;5047966;28;20040;-75
2023/11/08 05:56:06;;;;;;;7.07;3.05;;;6.10;99.90;;;;;;5048115;28;20045;-75
2023/11/08 05:58:35;;;;;;;5.40;2.72;;;6.00;99.90;;;;;;5049354;28;20056;-75
2023/11/08 06:01:03;;;;;;;5.10;2.97;;;6.10;99.90;;;;;;5047084;28;20365;-75
2023/11/08 06:03:29;;;;;;;6.75;2.78;;;6.00;99.90;;;;;;5047065;28;20029;-75
2023/11/08 06:05:54;;;;;;;6.07;2.90;;;5.90;99.90;;;;;;5047665;28;20039;-75
2023/11/08 06:08:20;;;;;;;4.95;3.15;;;5.90;99.90;;;;;;5048081;28;20090;-75
2023/11/08 06:10:46;;;;;;;3.83;2.45;;;5.90;99.90;;;;;;5048018;28;20029;-75
2023/11/08 06:13:12;;;;;;;5.63;3.53;;;6.00;99.90;;;;;;5048021;28;20115;-74
2023/11/08 06:15:38;;;;;;;4.75;2.63;;;6.00;99.90;;;;;;5048622;28;20045;-73
2023/11/08 06:18:04;;;;;;;6.15;2.55;;;5.90;99.90;;;;;;5050805;28;20037;-76
2023/11/08 06:20:30;;;;;;;4.35;2.50;;;5.70;99.90;;;;;;5049149;28;20492;-75
2023/11/08 06:22:56;;;;;;;4.55;2.92;;;5.70;99.90;;;;;;5047007;28;20028;-76
2023/11/08 06:25:22;;;;;;;4.63;2.92;;;5.60;99.90;;;;;;5045955;28;20060;-76
2023/11/08 06:27:48;;;;;;;5.85;2.45;;;5.80;99.90;;;;;;5049370;28;20123;-78
2023/11/08 06:30:15;;;;;;;5.68;2.75;;;6.30;99.90;;;;;;5051782;28;20617;-76
2023/11/08 06:32:41;;;;;;;4.78;2.33;;;5.90;99.90;;;;;;5045823;28;20028;-78
2023/11/08 06:35:07;;;;;;;4.43;2.60;;;5.70;99.90;;;;;;5048171;28;20086;-77
2023/11/08 06:37:33;;;;;;;4.90;2.60;;;5.60;99.90;;;;;;5046191;28;20874;-77
2023/11/08 06:39:59;;;;;;;5.32;2.92;;;5.50;99.90;;;;;;5046820;28;20037;-77
2023/11/08 06:42:24;;;;;;;4.40;3.13;;;5.60;99.90;;;;;;5047773;28;20090;-77
2023/11/08 06:44:50;;;;;;;3.85;2.42;;;5.60;99.90;;;;;;5046903;28;20055;-77
2023/11/08 06:47:15;;;;;;;5.30;2.42;;;5.70;99.90;;;;;;5046949;28;20846;-77
2023/11/08 06:49:41;;;;;;;4.95;2.92;;;5.70;99.90;;;;;;5051107;28;20953;-77
2023/11/08 06:52:07;;;;;;;4.82;2.47;;;5.90;99.90;;;;;;5050478;28;20060;-77
2023/11/08 06:54:36;;;;;;;8.25;2.47;;;5.90;99.90;;;;;;5050690;28;20033;-77
2023/11/08 06:57:03;;;;;;;5.43;2.40;;;5.90;99.90;;;;;;5050787;28;20052;-77
2023/11/08 06:59:28;;;;;;;4.10;2.33;;;5.70;99.90;;;;;;5051412;28;20120;-77
2023/11/08 07:01:54;;;;;;;4.68;2.60;;;5.70;99.90;;;;;;5050609;28;21698;-77
2023/11/08 07:04:20;;;;;;;5.75;2.30;;;5.60;99.90;;;;;;5051141;28;20033;-77
2023/11/08 07:06:45;;;;;;;8.68;3.08;;;5.60;99.90;;;;;;5050693;28;20036;-77
2023/11/08 07:09:13;;;;;;;5.50;2.85;;;5.70;99.90;;;;;;5049180;28;20139;-77
2023/11/08 07:11:39;;;;;;;4.93;2.53;;;5.80;99.90;;;;;;5050468;28;20095;-77
2023/11/08 07:14:05;;;;;;;4.53;2.65;;;5.90;99.90;;;;;;5051209;28;20123;-77
2023/11/08 07:16:31;;;;;;;5.03;2.20;;;6.00;99.90;;;;;;5049148;28;20041;-77
2023/11/08 07:18:57;;;;;;;5.10;2.90;;;6.10;99.90;;;;;;5050243;28;20486;-77
2023/11/08 07:21:23;;;;;;;4.80;2.70;;;6.10;99.90;;;;;;5051056;28;20043;-77
2023/11/08 07:23:49;;;;;;;4.90;2.90;;;6.00;99.90;;;;;;5050174;28;20029;-77
2023/11/08 07:26:15;;;;;;;4.82;2.65;;;6.00;99.90;;;;;;5049570;28;20028;-77
2023/11/08 07:28:46;;;;;;;4.53;2.67;;;6.00;99.90;;;;;;5050167;28;20839;-77
2023/11/08 07:31:13;;;;;;;4.50;2.63;;;6.00;99.90;;;;;;5050151;28;20029;-77
2023/11/08 07:33:40;;;;;;;3.63;2.00;;;6.00;99.90;;;;;;5049712;28;20052;-78
2023/11/08 07:36:06;;;;;;;4.70;2.55;;;5.90;99.90;;;;;;5050988;28;20082;-77
2023/11/08 07:38:35;;;;;;;4.70;3.05;;;5.90;99.90;;;;;;5050147;28;20945;-77
2023/11/08 07:41:02;;;;;;;6.40;2.67;;;5.90;99.90;;;;;;5049029;28;20051;-77
2023/11/08 07:43:31;;;;;;;5.38;2.33;;;5.90;99.90;;;;;;5051275;28;20043;-79
2023/11/08 07:45:59;;;;;;;4.35;2.40;;;6.00;99.90;;;;;;5050823;28;20033;-77
2023/11/08 07:48:26;;;;;;;4.75;2.42;;;5.90;99.90;;;;;;5050679;28;20093;-77
2023/11/08 07:50:52;;;;;;;4.88;2.65;;;5.90;99.90;;;;;;5050472;28;20033;-77
2023/11/08 07:53:19;;;;;;;4.10;2.50;;;6.00;99.90;;;;;;5050452;28;20095;-77
2023/11/08 07:55:45;;;;;;;4.63;2.65;;;6.10;99.90;;;;;;5048499;28;20085;-78
2023/11/08 07:58:11;;;;;;;4.75;2.35;;;6.10;99.90;;;;;;5050633;28;20151;-76
2023/11/08 08:00:39;;;;;;;4.18;2.40;;;6.10;99.90;;;;;;5049602;28;20128;-77
2023/11/08 08:03:04;;;;;;;5.05;2.22;;;6.10;99.90;;;;;;5049737;28;20608;-77
2023/11/08 08:05:30;;;;;;;4.20;2.33;;;6.20;99.90;;;;;;5050821;28;20115;-77
2023/11/08 08:07:56;;;;;;;5.70;2.95;;;6.20;99.90;;;;;;5049266;28;20467;-77
2023/11/08 08:10:25;;;;;;;4.95;2.65;;;6.20;99.90;;;;;;5050921;28;20082;-77
2023/11/08 08:12:52;;;;;;;4.78;2.10;;;6.10;99.90;;;;;;5061568;28;20020;-77
2023/11/08 08:15:18;;;;;;;4.65;2.53;;;6.20;99.90;;;;;;5059825;28;20036;-79
2023/11/08 08:17:45;;;;;;;4.30;2.08;;;6.10;99.90;;;;;;5059406;28;20051;-80
2023/11/08 08:20:11;;;;;;;5.72;2.17;;;6.20;99.90;;;;;;5049817;28;20521;-79
2023/11/08 08:22:37;;;;;;;4.10;2.47;;;6.10;99.90;;;;;;5051887;28;20382;-79
2023/11/08 08:25:03;;;;;;;4.05;1.98;;;6.20;99.90;;;;;;5052961;28;20319;-80
2023/11/08 08:27:29;;;;;;;5.78;2.67;;;6.20;99.90;;;;;;5052738;28;20066;-79
2023/11/08 08:29:55;;;;;;;4.68;2.03;;;6.20;99.90;;;;;;5051222;28;20028;-78
2023/11/08 08:32:20;;;;;;;5.10;2.05;;;6.20;99.90;;;;;;5051593;28;20035;-79
2023/11/08 08:34:46;;;;;;;4.72;2.33;;;6.10;99.90;;;;;;5051843;28;20431;-79
2023/11/08 08:37:12;;;;;;;3.72;1.80;;;6.10;99.90;;;;;;5053208;28;20044;-79
2023/11/08 08:39:37;;;;;;;4.32;1.92;;;6.20;99.90;;;;;;5052303;28;20051;-79
2023/11/08 08:42:06;;;;;;;3.67;1.90;;;6.30;99.90;;;;;;5053002;28;20058;-79
2023/11/08 08:44:33;;;;;;;4.28;1.90;;;6.50;99.90;;;;;;5053206;28;20032;-79
2023/11/08 08:46:59;;;;;;;2.67;1.52;;;6.50;99.90;;;;;;5049960;28;20024;-79
2023/11/08 08:49:25;;;;;;;3.17;1.30;;;6.60;99.90;;;;;;5049528;28;20090;-79
2023/11/08 08:51:50;;;;;;;3.38;1.50;;;6.70;99.90;;;;;;5049723;28;20483;-78
2023/11/08 08:54:16;;;;;;;3.28;2.13;;;6.70;99.90;;;;;;5046723;28;20036;-79
2023/11/08 08:56:44;;;;;;;3.10;1.40;;;6.70;99.90;;;;;;5048019;28;20056;-79
2023/11/08 08:59:12;;;;;;;3.20;1.30;;;6.70;99.90;;;;;;5046063;28;20048;-78
2023/11/08 09:01:37;;;;;;;3.10;1.30;;;6.80;99.90;;;;;;5047714;28;20724;-78
2023/11/08 09:04:03;;;;;;;3.85;1.73;;;6.80;99.90;;;;;;5047475;28;20093;-79
2023/11/08 09:06:29;;;;;;;4.30;1.85;;;6.70;99.90;;;;;;5043725;28;20033;-79
2023/11/08 09:08:55;;;;;;;2.83;1.55;;;6.60;99.90;;;;;;5047766;28;20063;-79
2023/11/08 09:11:22;;;;;;;4.40;2.20;;;6.50;99.90;;;;;;5047049;28;20041;-79
2023/11/08 09:13:48;;;;;;;3.35;1.38;;;6.60;99.90;;;;;;5048346;28;20138;-79
2023/11/08 09:16:16;;;;;;;5.85;1.60;;;6.70;99.90;;;;;;5046642;28;20123;-79
2023/11/08 09:18:42;;;;;;;4.40;2.00;;;6.50;99.90;;;;;;5048739;28;20406;-79
2023/11/08 09:21:08;;;;;;;4.20;2.30;;;6.80;99.90;;;;;;5047161;28;20025;-79
2023/11/08 09:23:33;;;;;;;4.90;2.05;;;6.80;99.90;;;;;;5046907;28;20591;-79
2023/11/08 09:25:59;;;;;;;3.50;1.27;;;6.80;99.90;;;;;;5049037;28;20478;-79
2023/11/08 09:28:26;;;;;;;3.38;1.92;;;6.90;99.90;;;;;;5046071;28;20040;-80
2023/11/08 09:30:52;;;;;;;3.65;1.63;;;6.90;99.90;;;;;;5046804;28;20039;-79
2023/11/08 09:33:18;;;;;;;3.53;1.70;;;7.00;99.90;;;;;;5049182;28;20039;-79
2023/11/08 09:35:44;;;;;;;5.32;1.30;;;7.00;99.90;;;;;;5048582;28;20058;-79
2023/11/08 09:38:12;;;;;;;2.50;1.30;;;7.00;99.90;;;;;;5047825;28;20032;-77
2023/11/08 09:40:37;;;;;;;3.38;1.45;;;7.20;99.90;;;;;;5047446;28;20029;-79
2023/11/08 09:43:05;;;;;;;2.25;1.20;;;7.30;99.90;;;;;;5047376;28;20048;-79
2023/11/08 09:45:31;;;;;;;2.50;1.40;;;7.50;99.90;;;;;;5047533;28;20033;-79
2023/11/08 09:47:58;;;;;;;2.95;1.05;;;7.60;99.90;;;;;;5046417;28;20044;-79
2023/11/08 09:50:24;;;;;;;4.97;2.10;;;7.60;99.90;;;;;;5048985;28;20581;-79
2023/11/08 09:52:51;;;;;;;3.45;2.10;;;7.60;99.90;;;;;;5047173;28;20131;-79
2023/11/08 09:55:17;;;;;;;3.22;1.75;;;7.50;99.90;;;;;;5047787;28;20059;-79
2023/11/08 09:57:49;;;;;;;4.45;1.70;;;7.70;99.90;;;;;;5046777;28;20098;-79
2023/11/08 10:00:19;;;;;;;3.03;1.10;;;7.80;99.90;;;;;;5045800;28;20631;-79
2023/11/08 10:02:46;;;;;;;2.17;1.30;;;7.80;99.90;;;;;;5044688;28;20044;-79
2023/11/08 10:05:12;;;;;;;3.42;1.25;;;7.80;99.90;;;;;;5047685;28;20070;-79
2023/11/08 10:07:39;;;;;;;2.80;1.38;;;7.90;99.90;;;;;;5046252;28;20597;-79
2023/11/08 10:10:06;;;;;;;2.88;1.10;;;7.90;99.90;;;;;;5045993;28;20021;-79
2023/11/08 10:12:32;;;;;;;3.22;1.27;;;7.90;99.90;;;;;;5046503;28;20063;-79
2023/11/08 10:15:02;;;;;;;5.50;2.40;;;8.00;99.90;;;;;;5044672;28;20104;-79
2023/11/08 10:17:41;;;;;;;3.78;1.70;;;8.10;99.90;;;;;;5046817;28;20639;-79
2023/11/08 10:20:10;;;;;;;2.78;1.27;;;8.20;99.90;;;;;;5042967;28;20086;-79
2023/11/08 10:22:36;;;;;;;2.25;1.05;;;8.30;99.90;;;;;;5047935;28;20568;-79
2023/11/08 10:25:05;;;;;;;2.03;1.10;;;8.40;99.90;;;;;;5049872;28;20401;-79
2023/11/08 10:27:33;;;;;;;4.13;1.05;;;8.50;99.90;;;;;;5050523;28;20090;-79
2023/11/08 10:30:20;;;;;;;2.33;0.90;;;8.60;99.90;;;;;;5052011;28;20596;-79
2023/11/08 10:32:46;;;;;;;5.35;1.00;;;8.60;99.90;;;;;;5051335;28;20448;-79
2023/11/08 10:35:21;;;;;;;2.05;0.90;;;9.00;99.90;;;;;;5052770;28;20059;-80
2023/11/08 10:37:48;;;;;;;1.95;0.70;;;8.90;99.90;;;;;;5051106;28;20041;-79
2023/11/08 10:40:15;;;;;;;3.35;1.02;;;8.80;99.90;;;;;;5052024;28;20082;-79
2023/11/08 10:42:49;;;;;;;2.92;0.93;;;8.90;99.90;;;;;;5052295;28;20034;-79
2023/11/08 10:45:15;;;;;;;2.15;1.08;;;8.90;99.90;;;;;;5051488;28;20546;-79
2023/11/08 10:47:41;;;;;;;2.00;0.80;;;9.00;99.90;;;;;;5050920;28;20048;-80
2023/11/08 10:50:12;;;;;;;2.25;1.27;;;9.00;99.90;;;;;;5050977;28;20036;-79
2023/11/08 10:52:39;;;;;;;1.65;0.90;;;9.00;99.90;;;;;;5050721;28;21048;-79
2023/11/08 10:55:06;;;;;;;3.33;1.30;;;9.10;99.90;;;;;;5049468;28;20094;-79
2023/11/08 10:57:34;;;;;;;2.17;1.00;;;9.20;99.90;;;;;;5049662;28;20075;-79
2023/11/08 11:00:05;;;;;;;4.50;1.20;;;9.30;99.90;;;;;;5051176;28;20043;-77
2023/11/08 11:02:57;;;;;;;3.88;1.88;;;9.30;99.90;;;;;;5050992;28;20037;-77
2023/11/08 11:05:24;;;;;;;5.05;1.00;;;9.40;99.90;;;;;;5050030;28;20429;-77
2023/11/08 11:07:53;;;;;;;2.45;1.10;;;9.50;99.90;;;;;;5050587;28;20094;-77
2023/11/08 11:10:19;;;;;;;4.25;2.03;;;9.60;99.90;;;;;;5050138;28;20029;-77
2023/11/08 11:13:02;;;;;;;2.55;1.08;;;9.70;99.90;;;;;;5050055;28;20040;-77
2023/11/08 11:15:53;;;;;;;2.83;1.25;;;9.70;99.90;;;;;;5051150;28;20462;-76
2023/11/08 11:18:27;;;;;;;3.97;1.05;;;9.80;99.90;;;;;;5053438;28;20052;-76
2023/11/08 11:21:19;;;;;;;4.03;1.50;;;9.90;99.90;;;;;;5053836;28;20951;-75
2023/11/08 11:23:45;;;;;;;3.33;1.60;;;10.20;99.90;;;;;;5052978;28;20336;-75
2023/11/08 11:26:11;;;;;;;2.08;1.10;;;10.20;99.90;;;;;;5053361;28;20032;-76
2023/11/08 11:28:57;;;;;;;3.63;1.48;;;10.30;99.90;;;;;;5051111;28;20102;-76
2023/11/08 11:31:42;;;;;;;2.83;1.70;;;10.40;99.90;;;;;;5053018;28;20499;-75
2023/11/08 11:34:37;;;;;;;2.30;1.08;;;10.50;99.90;;;;;;5053353;28;20040;-75
2023/11/08 11:37:13;;;;;;;2.47;1.17;;;10.60;99.90;;;;;;5047266;28;20060;-75
2023/11/08 11:39:51;;;;;;;2.45;1.10;;;10.80;99.90;;;;;;5052684;28;20040;-75
2023/11/08 11:42:23;;;;;;;2.20;1.05;;;10.90;99.90;;;;;;5052736;28;20043;-76
2023/11/08 11:44:56;;;;;;;2.55;1.10;;;10.90;99.90;;;;;;5053723;28;20029;-75
2023/11/08 11:47:28;;;;;;;3.35;1.10;;;11.20;99.90;;;;;;5051004;28;20094;-76
2023/11/08 11:50:01;;;;;;;3.80;1.30;;;11.10;99.90;;;;;;5051606;28;20115;-76
2023/11/08 11:52:28;;;;;;;6.20;1.02;;;11.10;99.90;;;;;;5052704;28;20044;-76
2023/11/08 11:54:58;;;;;;;2.75;1.20;;;11.30;99.90;;;;;;5054084;28;20047;-76
2023/11/08 11:57:26;;;;;;;2.85;1.20;;;11.30;99.90;;;;;;5052549;28;20068;-78
2023/11/08 11:59:56;;;;;;;2.33;0.85;;;11.20;99.90;;;;;;5053273;28;20703;-82
2023/11/08 12:02:24;;;;;;;2.28;1.20;;;11.20;99.90;;;;;;5052166;28;20036;-80
2023/11/08 12:04:50;;;;;;;5.18;1.50;;;11.10;99.90;;;;;;5054529;28;20559;-82
2023/11/08 12:07:17;;;;;;;3.55;1.38;;;11.00;99.90;;;;;;5053483;28;20490;-80
2023/11/08 12:09:44;;;;;;;2.65;1.10;;;10.90;99.90;;;;;;5053300;28;20482;-79
2023/11/08 12:12:10;;;;;;;3.30;1.20;;;10.90;99.90;;;;;;5053705;28;20055;-78
2023/11/08 12:14:40;;;;;;;2.00;1.10;;;10.80;99.90;;;;;;5051920;28;20086;-78
2023/11/08 12:17:08;;;;;;;1.58;0.73;;;11.10;99.90;;;;;;5050682;28;20040;-79
2023/11/08 12:19:34;;;;;;;4.50;1.30;;;11.00;99.90;;;;;;5051547;28;20037;-78
2023/11/08 12:22:05;;;;;;;4.15;1.25;;;11.10;99.90;;;;;;5050217;28;20383;-79
2023/11/08 12:24:34;;;;;;;2.55;1.02;;;11.30;99.90;;;;;;5049998;28;20105;-78
2023/11/08 12:27:01;;;;;;;4.20;1.65;;;11.30;99.90;;;;;;5050580;28;20123;-78
2023/11/08 12:29:27;;;;;;;7.90;5.57;;;11.30;99.90;;;;;;5051634;28;20131;-78
2023/11/08 12:31:53;;;;;;;3.47;1.70;;;11.50;99.90;;;;;;5049113;28;20033;-78
2023/11/08 12:34:21;;;;;;;3.33;1.27;;;11.50;99.90;;;;;;5049360;28;20048;-77
2023/11/08 12:36:48;;;;;;;3.85;1.90;;;11.30;99.90;;;;;;5050507;28;20048;-77
2023/11/08 12:39:18;;;;;;;5.00;2.40;;;11.40;99.90;;;;;;5048954;28;20036;-78
2023/11/08 12:41:45;;;;;;;12.40;6.90;;;11.40;99.90;;;;;;5050106;28;20150;-77
2023/11/08 12:44:15;;;;;;;9.70;4.90;;;11.40;99.90;;;;;;5050154;28;20070;-77
2023/11/08 12:46:49;;;;;;;3.72;1.75;;;11.40;99.90;;;;;;5048266;28;20083;-77
2023/11/08 12:49:16;;;;;;;6.55;3.45;;;11.40;99.90;;;;;;5049478;28;20416;-78
2023/11/08 12:51:43;;;;;;;4.38;2.28;;;11.50;99.90;;;;;;5049182;28;20040;-78
2023/11/08 12:54:17;;;;;;;2.80;1.60;;;11.50;99.90;;;;;;5051353;28;20024;-78
2023/11/08 12:56:43;;;;;;;2.77;1.30;;;11.50;99.90;;;;;;5049227;28;20056;-79